Time;durP1;ratioP1;P1;durP2;ratioP2;P2;SDS_P1;SDS_P2;PMS_P1;PMS_P2;Temp;Humidity;BMP_temperature;BMP_pressure;BME280_temperature;BME280_humidity;BME280_pressure;Samples;Min_cycle;Max_cycle;Signal;HPM_P1;HPM_P2
2023/07/13 00:00:04;;;;;;;;;;;23.30;99.90;23.00;99633.00;;;;345739;28;90691;-91
2023/07/13 00:00:16;;;;;;;;;;;23.20;99.90;23.10;99637.00;;;;348939;27;82637;-92
2023/07/13 00:00:28;;;;;;;;;;;23.20;99.90;23.10;99637.00;;;;348454;27;91238;-91
2023/07/13 00:00:40;;;;;;;;;;;23.20;99.90;23.10;99631.00;;;;347665;28;82504;-91
2023/07/13 00:00:52;;;;;;;;;;;23.20;99.90;23.10;99634.00;;;;348460;27;88792;-91
2023/07/13 00:01:04;;;;;;;;;;;23.20;99.90;23.10;99635.00;;;;350304;27;83374;-91
2023/07/13 00:01:16;;;;;;;;;;;23.20;99.90;23.10;99638.00;;;;348457;27;91468;-91
2023/07/13 00:01:28;;;;;;;;;;;23.20;99.90;23.10;99626.00;;;;349053;27;82516;-91
2023/07/13 00:01:40;;;;;;;;;;;23.20;99.90;23.00;99638.00;;;;348256;27;91692;-92
2023/07/13 00:01:52;;;;;;;;;;;23.20;99.90;23.00;99639.00;;;;348948;27;83440;-91
2023/07/13 00:02:04;;;;;;;;;;;23.20;99.90;23.00;99640.00;;;;348473;27;91218;-91
2023/07/13 00:02:16;;;;;;;;;;;23.20;99.90;23.00;99630.00;;;;346168;28;82469;-92
2023/07/13 00:02:28;;;;;;;;;;;23.10;99.90;23.00;99641.00;;;;347089;28;92236;-91
2023/07/13 00:02:40;;;;;;;;;;;23.10;99.90;23.00;99626.00;;;;348978;27;83357;-91
2023/07/13 00:02:55;;;;;;;;;;;23.10;99.90;23.00;99639.00;;;;348534;27;91512;-91
2023/07/13 00:03:07;;;;;;;;;;;23.10;99.90;23.00;99642.00;;;;347472;27;83580;-92
2023/07/13 00:03:19;;;;;;;;;;;23.10;99.90;23.00;99636.00;;;;346864;28;90527;-91
2023/07/13 00:03:34;;;;;;;;;;;23.10;99.90;23.00;99638.00;;;;347620;28;83402;-91
2023/07/13 00:03:47;;;;;;;;;;;23.10;99.90;23.00;99633.00;;;;347195;28;88970;-91
2023/07/13 00:03:59;;;;;;;;;;;23.10;99.90;23.00;99638.00;;;;346121;28;83436;-91
2023/07/13 00:04:11;;;;;;;;;;;23.10;99.90;23.00;99635.00;;;;347117;28;91857;-92
2023/07/13 00:04:25;;;;;;;;;;;23.10;99.90;23.00;99637.00;;;;345908;28;83514;-91
2023/07/13 00:04:37;;;;;;;;;;;23.10;99.90;23.00;99639.00;;;;348429;27;92239;-92
2023/07/13 00:04:50;;;;;;;;;;;23.10;99.90;23.00;99634.00;;;;347563;28;83463;-91
2023/07/13 00:05:02;;;;;;;;;;;23.10;99.90;22.90;99641.00;;;;345694;28;91325;-91
2023/07/13 00:05:14;;;;;;;;;;;23.00;99.90;23.00;99630.00;;;;346168;28;83385;-92
2023/07/13 00:05:27;;;;;;;;;;;23.00;99.90;23.00;99644.00;;;;348694;27;87933;-91
2023/07/13 00:05:41;;;;;;;;;;;23.00;99.90;23.00;99642.00;;;;344766;28;82579;-91
2023/07/13 00:05:59;;;;;;;;;;;23.00;99.90;23.00;99638.00;;;;348580;27;91931;-91
2023/07/13 00:06:12;;;;;;;;;;;23.00;99.90;22.90;99640.00;;;;346162;28;82507;-90
2023/07/13 00:06:24;;;;;;;;;;;23.00;99.90;23.00;99639.00;;;;345675;28;90449;-92
2023/07/13 00:06:35;;;;;;;;;;;23.00;99.90;23.00;99645.00;;;;347557;28;83514;-91
2023/07/13 00:06:47;;;;;;;;;;;23.00;99.90;23.00;99642.00;;;;347044;28;91464;-92
2023/07/13 00:07:00;;;;;;;;;;;23.00;99.90;23.00;99641.00;;;;346107;28;83298;-92
2023/07/13 00:07:14;;;;;;;;;;;23.00;99.90;23.00;99642.00;;;;348481;27;90526;-91
2023/07/13 00:07:26;;;;;;;;;;;23.00;99.90;23.00;99640.00;;;;350427;27;82484;-91
2023/07/13 00:07:38;;;;;;;;;;;23.00;99.90;23.00;99643.00;;;;347195;28;90321;-91
2023/07/13 00:07:51;;;;;;;;;;;23.00;99.90;22.90;99638.00;;;;350306;27;83375;-91
2023/07/13 00:08:03;;;;;;;;;;;23.00;99.90;23.00;99638.00;;;;347113;28;91513;-92
2023/07/13 00:08:15;;;;;;;;;;;23.00;99.90;23.00;99640.00;;;;347439;28;83500;-92
2023/07/13 00:08:30;;;;;;;;;;;23.00;99.90;23.00;99641.00;;;;345454;28;91310;-91
2023/07/13 00:08:42;;;;;;;;;;;23.00;99.90;23.00;99639.00;;;;346085;28;83501;-91
2023/07/13 00:08:53;;;;;;;;;;;23.00;99.90;23.00;99645.00;;;;347004;28;91527;-92
2023/07/13 00:09:06;;;;;;;;;;;23.00;99.90;23.00;99634.00;;;;346143;28;82497;-91
2023/07/13 00:09:18;;;;;;;;;;;23.00;99.90;22.90;99637.00;;;;348417;27;88301;-91
2023/07/13 00:09:30;;;;;;;;;;;23.00;99.90;22.90;99641.00;;;;349067;27;83399;-92
2023/07/13 00:09:41;;;;;;;;;;;23.00;99.90;23.00;99641.00;;;;345622;28;91344;-91
2023/07/13 00:09:53;;;;;;;;;;;23.00;99.90;23.00;99643.00;;;;346146;28;82507;-91
2023/07/13 00:10:08;;;;;;;;;;;23.00;99.90;23.00;99641.00;;;;348592;27;88765;-91
2023/07/13 00:10:21;;;;;;;;;;;23.00;99.90;22.90;99636.00;;;;347491;28;83409;-91
2023/07/13 00:10:33;;;;;;;;;;;23.00;99.90;22.90;99639.00;;;;347074;28;91195;-91
2023/07/13 00:10:46;;;;;;;;;;;23.00;99.90;22.90;99634.00;;;;348953;27;83384;-92
2023/07/13 00:10:58;;;;;;;;;;;23.00;99.90;22.90;99640.00;;;;345568;28;92184;-91
2023/07/13 00:11:10;;;;;;;;;;;23.00;99.90;22.90;99633.00;;;;346008;28;83973;-92
2023/07/13 00:11:22;;;;;;;;;;;23.00;99.90;22.90;99633.00;;;;344299;28;91897;-92
2023/07/13 00:11:34;;;;;;;;;;;23.00;99.90;22.90;99636.00;;;;346167;28;83362;-91
2023/07/13 00:11:51;;;;;;;;;;;23.00;99.90;23.00;99634.00;;;;344282;28;90483;-91
2023/07/13 00:12:04;;;;;;;;;;;23.00;99.90;23.00;99643.00;;;;346113;28;82546;-91
2023/07/13 00:12:28;;;;;;;;;;;23.00;99.90;22.90;99636.00;;;;348455;27;91589;-92
2023/07/13 00:12:40;;;;;;;;;;;23.00;99.90;22.90;99643.00;;;;346161;28;83418;-91
2023/07/13 00:12:54;;;;;;;;;;;23.00;99.90;22.90;99630.00;;;;348333;27;91212;-91
2023/07/13 00:13:06;;;;;;;;;;;23.00;99.90;22.90;99635.00;;;;347494;28;82563;-91
2023/07/13 00:13:18;;;;;;;;;;;23.00;99.90;22.90;99632.00;;;;345639;28;92568;-91
2023/07/13 00:13:30;;;;;;;;;;;23.00;99.90;22.90;99631.00;;;;344736;28;83571;-92
2023/07/13 00:13:42;;;;;;;;;;;22.90;99.90;22.90;99637.00;;;;347089;28;91538;-92
2023/07/13 00:13:54;;;;;;;;;;;22.90;99.90;22.90;99636.00;;;;346158;28;83379;-92
2023/07/13 00:14:06;;;;;;;;;;;23.00;99.90;22.90;99637.00;;;;345807;28;90126;-91
2023/07/13 00:14:18;;;;;;;;;;;22.90;99.90;22.90;99629.00;;;;344735;28;83390;-92
2023/07/13 00:14:30;;;;;;;;;;;23.00;99.90;22.80;99629.00;;;;345746;28;91522;-91
2023/07/13 00:14:42;;;;;;;;;;;22.90;99.90;22.80;99631.00;;;;344840;28;83352;-92
2023/07/13 00:14:55;;;;;;;;;;;22.90;99.90;22.80;99633.00;;;;347158;28;90126;-92
2023/07/13 00:15:16;;;;;;;;;;;22.90;99.90;22.80;99635.00;;;;347501;28;82485;-91
2023/07/13 00:15:29;;;;;;;;;;;22.90;99.90;22.80;99636.00;;;;347207;28;91293;-91
2023/07/13 00:15:41;;;;;;;;;;;22.90;99.90;22.80;99634.00;;;;344743;28;83392;-91
2023/07/13 00:15:53;;;;;;;;;;;22.90;99.90;22.90;99635.00;;;;345159;28;90401;-91
2023/07/13 00:18:20;;;;;;;;;;;22.90;99.90;22.80;99636.00;;;;251376;28;88136;-88
2023/07/13 00:18:31;;;;;;;;;;;22.90;99.90;22.80;99624.00;;;;342004;28;91565;-91
2023/07/13 00:18:43;;;;;;;;;;;22.80;99.90;22.80;99638.00;;;;339589;28;82325;-91
2023/07/13 00:18:55;;;;;;;;;;;22.90;99.90;22.90;99629.00;;;;340255;28;91487;-91
2023/07/13 00:19:07;;;;;;;;;;;22.80;99.90;22.90;99632.00;;;;339315;28;83397;-91
2023/07/13 00:19:18;;;;;;;;;;;22.90;99.90;22.90;99624.00;;;;341522;28;90599;-92
2023/07/13 00:19:30;;;;;;;;;;;22.80;99.90;22.90;99628.00;;;;339354;28;83343;-91
2023/07/13 00:19:42;;;;;;;;;;;22.90;99.90;22.90;99624.00;;;;339087;28;87881;-91
2023/07/13 00:19:55;;;;;;;;;;;22.90;99.90;22.80;99620.00;;;;338111;28;83344;-91
2023/07/13 00:20:08;;;;;;;;;;;22.80;99.90;22.90;99624.00;;;;338977;28;91838;-91
2023/07/13 00:20:21;;;;;;;;;;;22.80;99.90;22.80;99622.00;;;;340833;28;82509;-91
2023/07/13 00:20:33;;;;;;;;;;;22.90;99.90;22.90;99627.00;;;;340145;28;91936;-92
2023/07/13 00:20:45;;;;;;;;;;;22.90;99.90;22.90;99626.00;;;;340733;28;83364;-91
2023/07/13 00:21:05;;;;;;;;;;;22.80;99.90;22.90;99624.00;;;;338936;28;91802;-91
2023/07/13 00:21:17;;;;;;;;;;;22.90;99.90;22.90;99622.00;;;;342058;28;83389;-92
2023/07/13 00:21:28;;;;;;;;;;;22.80;99.90;22.90;99627.00;;;;339030;28;90603;-91
2023/07/13 00:21:41;;;;;;;;;;;22.80;99.90;22.90;99621.00;;;;338102;28;82518;-91
2023/07/13 00:21:55;;;;;;;;;;;22.90;99.90;22.90;99622.00;;;;340250;28;90177;-91
2023/07/13 00:22:07;;;;;;;;;;;22.90;99.90;22.90;99627.00;;;;340632;28;82557;-91
2023/07/13 00:22:19;;;;;;;;;;;22.90;99.90;22.90;99621.00;;;;338953;28;91368;-91
2023/07/13 00:22:31;;;;;;;;;;;22.90;99.90;22.90;99617.00;;;;337934;28;82570;-90
2023/07/13 00:22:43;;;;;;;;;;;22.90;99.90;22.90;99621.00;;;;340165;28;91374;-92
2023/07/13 00:22:55;;;;;;;;;;;22.90;99.90;22.90;99624.00;;;;339157;28;83596;-91
2023/07/13 00:23:07;;;;;;;;;;;22.90;99.90;22.90;99620.00;;;;337509;28;89565;-91
2023/07/13 00:23:19;;;;;;;;;;;22.90;99.90;22.80;99618.00;;;;342038;28;82478;-91
2023/07/13 00:23:33;;;;;;;;;;;22.90;99.90;22.90;99627.00;;;;341670;28;91097;-92
2023/07/13 00:23:45;;;;;;;;;;;22.90;99.90;22.80;99624.00;;;;339481;28;83302;-90
2023/07/13 00:23:57;;;;;;;;;;;22.90;99.90;22.80;99620.00;;;;340168;28;90482;-92
2023/07/13 00:24:12;;;;;;;;;;;22.90;99.90;22.80;99623.00;;;;343446;28;83306;-91
2023/07/13 00:24:24;;;;;;;;;;;22.90;99.90;22.80;99626.00;;;;336351;28;90710;-91
2023/07/13 00:24:41;;;;;;;;;;;22.80;99.90;22.80;99624.00;;;;340687;28;82485;-90
2023/07/13 00:24:55;;;;;;;;;;;22.80;99.90;22.80;99624.00;;;;341599;28;91519;-91
2023/07/13 00:25:11;;;;;;;;;;;22.80;99.90;22.80;99608.00;;;;342017;28;83209;-91
2023/07/13 00:25:28;;;;;;;;;;;22.80;99.90;22.80;99617.00;;;;341618;28;91813;-91
2023/07/13 00:25:40;;;;;;;;;;;22.80;99.90;22.80;99620.00;;;;340723;28;83279;-91
2023/07/13 00:25:52;;;;;;;;;;;22.80;99.90;22.80;99620.00;;;;339687;28;90556;-92
2023/07/13 00:26:04;;;;;;;;;;;22.80;99.90;22.80;99620.00;;;;339635;28;82418;-91
2023/07/13 00:26:17;;;;;;;;;;;22.80;99.90;22.80;99620.00;;;;341583;28;91532;-91
2023/07/13 00:26:29;;;;;;;;;;;22.80;99.90;22.80;99618.00;;;;340292;28;83574;-91
2023/07/13 00:26:41;;;;;;;;;;;22.80;99.90;22.80;99617.00;;;;339005;28;87990;-91
2023/07/13 00:26:52;;;;;;;;;;;22.80;99.90;22.80;99626.00;;;;339400;28;82548;-92
2023/07/13 00:27:04;;;;;;;;;;;22.80;99.90;22.70;99618.00;;;;338690;28;92549;-91
2023/07/13 00:27:17;;;;;;;;;;;22.80;99.90;22.80;99616.00;;;;339284;28;83497;-91
2023/07/13 00:27:31;;;;;;;;;;;22.80;99.90;22.70;99619.00;;;;340291;28;90334;-91
2023/07/13 00:27:43;;;;;;;;;;;22.80;99.90;22.70;99615.00;;;;340704;28;83423;-90
2023/07/13 00:27:55;;;;;;;;;;;22.80;99.90;22.70;99626.00;;;;338891;28;90960;-91
2023/07/13 00:28:07;;;;;;;;;;;22.80;99.90;22.70;99624.00;;;;340654;28;83541;-90
2023/07/13 00:28:19;;;;;;;;;;;22.80;99.90;22.70;99620.00;;;;339012;28;91815;-92
2023/07/13 00:28:31;;;;;;;;;;;22.80;99.90;22.70;99619.00;;;;340576;28;83394;-91
2023/07/13 00:28:43;;;;;;;;;;;22.80;99.90;22.70;99619.00;;;;338976;28;90834;-91
2023/07/13 00:28:55;;;;;;;;;;;22.80;99.90;22.70;99616.00;;;;339149;28;83429;-91
2023/07/13 00:29:08;;;;;;;;;;;22.80;99.90;22.70;99618.00;;;;337559;28;91580;-91
2023/07/13 00:29:21;;;;;;;;;;;22.80;99.90;22.70;99618.00;;;;340693;28;83457;-92
2023/07/13 00:29:33;;;;;;;;;;;22.80;99.90;22.70;99623.00;;;;340263;28;91578;-91
2023/07/13 00:29:45;;;;;;;;;;;22.70;99.90;22.80;99620.00;;;;339363;28;82428;-91
2023/07/13 00:29:58;;;;;;;;;;;22.70;99.90;22.70;99616.00;;;;340187;28;91172;-91
2023/07/13 00:30:10;;;;;;;;;;;22.80;99.90;22.70;99622.00;;;;340723;28;83873;-91
2023/07/13 00:30:22;;;;;;;;;;;22.80;99.90;22.80;99618.00;;;;338952;28;91602;-91
2023/07/13 00:30:34;;;;;;;;;;;22.80;99.90;22.80;99616.00;;;;338048;28;83399;-92
2023/07/13 00:30:46;;;;;;;;;;;22.80;99.90;22.80;99619.00;;;;338915;28;90574;-91
2023/07/13 00:30:58;;;;;;;;;;;22.80;99.90;22.80;99617.00;;;;339336;28;83253;-91
2023/07/13 00:31:11;;;;;;;;;;;22.80;99.90;22.80;99623.00;;;;340133;28;92053;-91
2023/07/13 00:31:23;;;;;;;;;;;22.80;99.90;22.80;99622.00;;;;339326;28;83454;-90
2023/07/13 00:31:35;;;;;;;;;;;22.80;99.90;22.70;99613.00;;;;340391;28;88752;-91
2023/07/13 00:31:47;;;;;;;;;;;22.80;99.90;22.70;99619.00;;;;340770;28;83403;-91
2023/07/13 00:31:59;;;;;;;;;;;22.80;99.90;22.80;99614.00;;;;340336;28;90954;-91
2023/07/13 00:32:11;;;;;;;;;;;22.80;99.90;22.80;99618.00;;;;339373;28;83426;-90
2023/07/13 00:32:25;;;;;;;;;;;22.80;99.90;22.70;99613.00;;;;337662;28;90724;-91
2023/07/13 00:32:37;;;;;;;;;;;22.80;99.90;22.80;99618.00;;;;340627;28;82519;-91
2023/07/13 00:32:49;;;;;;;;;;;22.80;99.90;22.80;99621.00;;;;341726;28;90148;-91
2023/07/13 00:33:12;;;;;;;;;;;22.80;99.90;22.80;99616.00;;;;340570;28;83291;-91
2023/07/13 00:33:29;;;;;;;;;;;22.80;99.90;22.80;99622.00;;;;338870;28;91937;-91
2023/07/13 00:33:41;;;;;;;;;;;22.80;99.90;22.80;99614.00;;;;339378;28;83381;-91
2023/07/13 00:33:53;;;;;;;;;;;22.80;99.90;22.80;99614.00;;;;338914;28;90819;-92
2023/07/13 00:34:05;;;;;;;;;;;22.80;99.90;22.80;99617.00;;;;338069;28;82433;-91
2023/07/13 00:34:17;;;;;;;;;;;22.80;99.90;22.80;99612.00;;;;337637;28;91898;-92
2023/07/13 00:34:29;;;;;;;;;;;22.80;99.90;22.70;99617.00;;;;339157;28;82671;-91
2023/07/13 00:34:41;;;;;;;;;;;22.80;99.90;22.70;99618.00;;;;339023;28;90285;-92
2023/07/13 00:34:52;;;;;;;;;;;22.80;99.90;22.80;99617.00;;;;339405;28;83346;-91
2023/07/13 00:35:04;;;;;;;;;;;22.80;99.90;22.70;99618.00;;;;337633;28;91850;-91
2023/07/13 00:35:16;;;;;;;;;;;22.80;99.90;22.80;99610.00;;;;339350;28;83485;-91
2023/07/13 00:35:30;;;;;;;;;;;22.80;99.90;22.80;99612.00;;;;337549;28;92265;-91
2023/07/13 00:35:43;;;;;;;;;;;22.80;99.90;22.80;99620.00;;;;339420;28;83345;-91
2023/07/13 00:35:56;;;;;;;;;;;22.80;99.90;22.80;99621.00;;;;337564;28;92176;-92
2023/07/13 00:36:08;;;;;;;;;;;22.80;99.90;22.70;99626.00;;;;338059;28;83334;-91
2023/07/13 00:36:21;;;;;;;;;;;22.80;99.90;22.80;99620.00;;;;338972;28;91974;-90
2023/07/13 00:36:33;;;;;;;;;;;22.80;99.90;22.70;99618.00;;;;339087;28;83476;-91
2023/07/13 00:36:44;;;;;;;;;;;22.80;99.90;22.80;99613.00;;;;340265;28;91750;-91
2023/07/13 00:36:56;;;;;;;;;;;22.80;99.90;22.70;99624.00;;;;340752;28;83332;-91
2023/07/13 00:37:09;;;;;;;;;;;22.80;99.90;22.70;99620.00;;;;338903;28;90142;-92
2023/07/13 00:37:20;;;;;;;;;;;22.80;99.90;22.80;99623.00;;;;342052;28;83614;-91
2023/07/13 00:37:33;;;;;;;;;;;22.80;99.90;22.70;99617.00;;;;338680;28;91936;-91
2023/07/13 00:37:45;;;;;;;;;;;22.80;99.90;22.80;99617.00;;;;341963;28;82454;-91
2023/07/13 00:37:57;;;;;;;;;;;22.80;99.90;22.70;99624.00;;;;338904;28;90132;-90
2023/07/13 00:38:09;;;;;;;;;;;22.80;99.90;22.70;99623.00;;;;338081;28;83346;-92
2023/07/13 00:38:22;;;;;;;;;;;22.80;99.90;22.70;99620.00;;;;340213;28;90730;-91
2023/07/13 00:38:33;;;;;;;;;;;22.80;99.90;22.80;99623.00;;;;340592;28;83395;-91
2023/07/13 00:38:46;;;;;;;;;;;22.70;99.90;22.70;99626.00;;;;340135;28;89485;-92
2023/07/13 00:38:58;;;;;;;;;;;22.70;99.90;22.70;99626.00;;;;339405;28;82535;-90
2023/07/13 00:39:09;;;;;;;;;;;22.80;99.90;22.70;99630.00;;;;337546;28;91853;-92
2023/07/13 00:39:22;;;;;;;;;;;22.70;99.90;22.70;99616.00;;;;338138;28;82513;-91
2023/07/13 00:39:34;;;;;;;;;;;22.70;99.90;22.80;99622.00;;;;337498;28;93126;-91
2023/07/13 00:39:46;;;;;;;;;;;22.70;99.90;22.80;99618.00;;;;336709;28;83387;-90
2023/07/13 00:39:58;;;;;;;;;;;22.70;99.90;22.70;99613.00;;;;337602;28;91892;-91
2023/07/13 00:40:12;;;;;;;;;;;22.70;99.90;22.80;99622.00;;;;342018;28;83763;-92
2023/07/13 00:40:24;;;;;;;;;;;22.70;99.90;22.70;99623.00;;;;340322;28;91629;-91
2023/07/13 00:40:36;;;;;;;;;;;22.70;99.90;22.70;99623.00;;;;340640;28;83195;-91
2023/07/13 00:40:48;;;;;;;;;;;22.80;99.90;22.70;99622.00;;;;338935;28;90893;-91
2023/07/13 00:41:00;;;;;;;;;;;22.70;99.90;22.70;99623.00;;;;339374;28;82576;-92
2023/07/13 00:41:12;;;;;;;;;;;22.70;99.90;22.80;99622.00;;;;340189;28;92177;-91
2023/07/13 00:41:24;;;;;;;;;;;22.70;99.90;22.80;99623.00;;;;339324;28;83371;-91
2023/07/13 00:41:36;;;;;;;;;;;22.70;99.90;22.80;99624.00;;;;340259;28;91049;-92
2023/07/13 00:41:49;;;;;;;;;;;22.70;99.90;22.80;99629.00;;;;340728;28;83331;-91
2023/07/13 00:42:01;;;;;;;;;;;22.70;99.90;22.80;99617.00;;;;341421;28;90439;-91
2023/07/13 00:42:13;;;;;;;;;;;22.70;99.90;22.80;99624.00;;;;340614;28;83403;-91
2023/07/13 00:42:25;;;;;;;;;;;22.80;99.90;22.80;99619.00;;;;341583;28;91681;-91
2023/07/13 00:42:37;;;;;;;;;;;22.80;99.90;22.80;99622.00;;;;340593;28;83532;-91
2023/07/13 00:42:48;;;;;;;;;;;22.80;99.90;22.70;99621.00;;;;340240;28;91320;-92
2023/07/13 00:43:00;;;;;;;;;;;22.80;99.90;22.80;99622.00;;;;339300;28;82580;-91
2023/07/13 00:43:22;;;;;;;;;;;22.70;99.90;22.80;99615.00;;;;340218;28;90365;-91
2023/07/13 00:43:34;;;;;;;;;;;22.80;99.90;22.80;99622.00;;;;338090;28;83369;-93
2023/07/13 00:43:46;;;;;;;;;;;22.80;99.90;22.80;99618.00;;;;338963;28;89713;-91
2023/07/13 00:43:58;;;;;;;;;;;22.80;99.90;22.80;99615.00;;;;339243;28;83512;-91
2023/07/13 00:44:14;;;;;;;;;;;22.80;99.90;22.80;99619.00;;;;336286;28;91501;-91
2023/07/13 00:44:26;;;;;;;;;;;22.80;99.90;22.80;99620.00;;;;339342;28;83356;-91
2023/07/13 00:44:39;;;;;;;;;;;22.80;99.90;22.70;99618.00;;;;341582;28;90702;-91
2023/07/13 00:45:12;;;;;;;;;;;22.80;99.90;22.80;99623.00;;;;340777;28;83183;-91
2023/07/13 00:45:24;;;;;;;;;;;22.80;99.90;22.80;99622.00;;;;339001;28;91277;-93
2023/07/13 00:45:36;;;;;;;;;;;22.80;99.90;22.80;99628.00;;;;340752;28;83356;-93
2023/07/13 00:45:49;;;;;;;;;;;22.80;99.90;22.80;99623.00;;;;341516;28;91471;-93
2023/07/13 00:46:32;;;;;;;;;;;22.80;99.90;22.80;99620.00;;;;342053;28;82579;-92
2023/07/13 00:46:44;;;;;;;;;;;22.80;99.90;22.80;99623.00;;;;338807;28;91621;-95
2023/07/13 00:46:58;;;;;;;;;;;22.80;99.90;22.80;99623.00;;;;341791;28;83464;-94
2023/07/13 00:47:10;;;;;;;;;;;22.80;99.90;22.60;99630.00;;;;340322;28;88116;-93
2023/07/13 00:47:22;;;;;;;;;;;22.80;99.90;22.70;99620.00;;;;339876;28;83456;-93
2023/07/13 00:47:34;;;;;;;;;;;22.70;99.90;22.70;99619.00;;;;337617;28;91317;-92
2023/07/13 00:47:46;;;;;;;;;;;22.80;99.90;22.70;99623.00;;;;340500;28;83461;-93
2023/07/13 00:47:58;;;;;;;;;;;22.70;99.90;22.70;99619.00;;;;338566;28;96072;-94
2023/07/13 00:48:29;;;;;;;;;;;22.80;99.90;22.80;99617.00;;;;342042;28;82553;-93
2023/07/13 00:48:41;;;;;;;;;;;22.70;99.90;22.70;99630.00;;;;339954;28;95284;-92
2023/07/13 00:48:54;;;;;;;;;;;22.80;99.90;22.70;99612.00;;;;339536;28;83498;-93
2023/07/13 00:49:07;;;;;;;;;;;22.80;99.90;22.80;99618.00;;;;337513;28;96656;-94
2023/07/13 00:49:21;;;;;;;;;;;22.70;99.90;22.80;99623.00;;;;341123;28;83398;-93
2023/07/13 00:49:33;;;;;;;;;;;22.70;99.90;22.80;99615.00;;;;340222;28;96844;-93
2023/07/13 00:49:45;;;;;;;;;;;22.80;99.90;22.80;99620.00;;;;339826;28;83382;-93
2023/07/13 00:49:57;;;;;;;;;;;22.80;99.90;22.80;99619.00;;;;341587;28;97165;-93
2023/07/13 00:50:12;;;;;;;;;;;22.80;99.90;22.80;99626.00;;;;341058;28;82510;-94
2023/07/13 00:50:25;;;;;;;;;;;22.80;99.90;22.80;99619.00;;;;338950;28;95632;-93
2023/07/13 00:50:37;;;;;;;;;;;22.80;99.90;22.80;99619.00;;;;341058;28;83482;-93
2023/07/13 00:50:51;;;;;;;;;;;22.80;99.90;22.80;99623.00;;;;339007;28;95686;-94
2023/07/13 00:51:03;;;;;;;;;;;22.80;99.90;22.80;99623.00;;;;339711;28;82506;-94
2023/07/13 00:51:17;;;;;;;;;;;22.80;99.90;22.80;99627.00;;;;338766;28;96505;-94
2023/07/13 00:51:49;;;;;;;;;;;22.80;99.90;22.80;99626.00;;;;341140;28;83439;-93
2023/07/13 00:52:07;;;;;;;;;;;22.80;99.90;22.70;99628.00;;;;334112;29;96503;-93
2023/07/13 00:52:19;;;;;;;;;;;22.80;99.90;22.70;99622.00;;;;334623;28;82473;-93
2023/07/13 00:52:31;;;;;;;;;;;22.70;99.90;22.70;99624.00;;;;337743;28;95171;-94
2023/07/13 00:52:45;;;;;;;;;;;22.80;99.90;22.70;99623.00;;;;338397;28;82609;-91
2023/07/13 00:52:58;;;;;;;;;;;22.70;99.90;22.80;99623.00;;;;340348;28;95435;-94
2023/07/13 00:53:10;;;;;;;;;;;22.70;99.90;22.80;99627.00;;;;339691;28;82452;-94
2023/07/13 00:53:22;;;;;;;;;;;22.70;99.90;22.80;99622.00;;;;340001;28;97070;-92
2023/07/13 00:53:34;;;;;;;;;;;22.70;99.90;22.80;99624.00;;;;340730;28;83387;-94
2023/07/13 00:53:46;;;;;;;;;;;22.70;99.90;22.80;99626.00;;;;338479;28;97723;-93
2023/07/13 00:53:59;;;;;;;;;;;22.70;99.90;22.70;99630.00;;;;340649;28;82501;-92
2023/07/13 00:54:14;;;;;;;;;;;22.70;99.90;22.70;99628.00;;;;341276;28;96411;-93
2023/07/13 00:54:45;;;;;;;;;;;22.70;99.90;22.80;99637.00;;;;339371;28;82475;-93
2023/07/13 00:54:57;;;;;;;;;;;22.70;99.90;22.70;99627.00;;;;341082;28;95464;-93
2023/07/13 00:55:09;;;;;;;;;;;22.70;99.90;22.70;99629.00;;;;341984;28;83463;-94
2023/07/13 00:55:21;;;;;;;;;;;22.70;99.90;22.80;99624.00;;;;339969;28;95577;-93
2023/07/13 00:55:33;;;;;;;;;;;22.70;99.90;22.80;99626.00;;;;340752;28;83412;-93
2023/07/13 00:55:45;;;;;;;;;;;22.70;99.90;22.80;99630.00;;;;339754;28;95596;-93
2023/07/13 00:55:57;;;;;;;;;;;22.70;99.90;22.80;99639.00;;;;340599;28;83546;-94
2023/07/13 00:56:09;;;;;;;;;;;22.70;99.90;22.80;99634.00;;;;338645;28;95218;-93
2023/07/13 00:56:21;;;;;;;;;;;22.70;99.90;22.70;99635.00;;;;340647;28;83441;-93
2023/07/13 00:56:33;;;;;;;;;;;22.70;99.90;22.70;99636.00;;;;339868;28;95943;-93
2023/07/13 00:56:45;;;;;;;;;;;22.70;99.90;22.80;99627.00;;;;340727;28;82484;-92
2023/07/13 00:56:59;;;;;;;;;;;22.70;99.90;22.80;99627.00;;;;339935;28;96712;-93
2023/07/13 00:57:14;;;;;;;;;;;22.70;99.90;22.80;99637.00;;;;340778;28;83366;-93
2023/07/13 00:57:26;;;;;;;;;;;22.70;99.90;22.80;99630.00;;;;341224;28;95688;-93
2023/07/13 00:57:38;;;;;;;;;;;22.70;99.90;22.80;99630.00;;;;340696;28;82500;-93
2023/07/13 00:57:50;;;;;;;;;;;22.70;99.90;22.80;99629.00;;;;341186;28;95642;-93
2023/07/13 00:58:02;;;;;;;;;;;22.70;99.90;22.80;99633.00;;;;339302;28;83459;-94
2023/07/13 00:58:14;;;;;;;;;;;22.70;99.90;22.70;99638.00;;;;339662;28;96938;-94
2023/07/13 00:58:26;;;;;;;;;;;22.70;99.90;22.70;99631.00;;;;340367;28;83561;-93
2023/07/13 00:58:37;;;;;;;;;;;22.70;99.90;22.70;99635.00;;;;339709;28;95838;-94
2023/07/13 00:58:50;;;;;;;;;;;22.70;99.90;22.70;99634.00;;;;341933;28;83392;-93
2023/07/13 00:59:02;;;;;;;;;;;22.70;99.90;22.70;99629.00;;;;339974;28;95984;-93
2023/07/13 00:59:15;;;;;;;;;;;22.70;99.90;22.70;99632.00;;;;340604;28;83455;-93
2023/07/13 00:59:27;;;;;;;;;;;22.70;99.90;22.70;99633.00;;;;337174;28;96299;-93
2023/07/13 00:59:40;;;;;;;;;;;22.70;99.90;22.80;99629.00;;;;339378;28;83382;-93
2023/07/13 00:59:57;;;;;;;;;;;22.70;99.90;22.70;99637.00;;;;339851;28;97020;-93
2023/07/13 01:00:10;;;;;;;;;;;22.70;99.90;22.70;99636.00;;;;341985;28;83483;-93
2023/07/13 01:00:22;;;;;;;;;;;22.70;99.90;22.70;99633.00;;;;341019;28;97229;-92
2023/07/13 01:00:35;;;;;;;;;;;22.70;99.90;22.80;99633.00;;;;339294;28;83426;-92
2023/07/13 01:00:46;;;;;;;;;;;22.70;99.90;22.80;99637.00;;;;341262;28;97188;-93
2023/07/13 01:00:58;;;;;;;;;;;22.70;99.90;22.80;99633.00;;;;341942;28;83279;-94
2023/07/13 01:01:12;;;;;;;;;;;22.70;99.90;22.70;99638.00;;;;341129;28;96650;-93
2023/07/13 01:01:24;;;;;;;;;;;22.70;99.90;22.80;99634.00;;;;339354;28;82659;-93
2023/07/13 01:01:36;;;;;;;;;;;22.70;99.90;22.80;99638.00;;;;338586;28;94997;-94
2023/07/13 01:01:48;;;;;;;;;;;22.70;99.90;22.80;99637.00;;;;341995;28;82472;-93
2023/07/13 01:02:01;;;;;;;;;;;22.70;99.90;22.70;99639.00;;;;339858;28;96842;-93
2023/07/13 01:02:13;;;;;;;;;;;22.70;99.90;22.80;99640.00;;;;339325;28;83486;-93
2023/07/13 01:02:25;;;;;;;;;;;22.70;99.90;22.80;99636.00;;;;341179;28;97404;-93
2023/07/13 01:02:38;;;;;;;;;;;22.70;99.90;22.70;99640.00;;;;340557;28;83474;-94
2023/07/13 01:02:50;;;;;;;;;;;22.70;99.90;22.70;99643.00;;;;338619;28;96828;-91
2023/07/13 01:03:04;;;;;;;;;;;22.70;99.90;22.70;99640.00;;;;342124;28;83357;-90
2023/07/13 01:03:16;;;;;;;;;;;22.70;99.90;22.70;99638.00;;;;339868;28;93213;-92
2023/07/13 01:03:28;;;;;;;;;;;22.70;99.90;22.80;99645.00;;;;336728;28;83532;-91
2023/07/13 01:03:40;;;;;;;;;;;22.70;99.90;22.80;99638.00;;;;338551;28;96702;-91
2023/07/13 01:03:53;;;;;;;;;;;22.70;99.90;22.80;99640.00;;;;341972;28;83400;-92
2023/07/13 01:04:07;;;;;;;;;;;22.70;99.90;22.80;99638.00;;;;338576;28;96526;-91
2023/07/13 01:04:20;;;;;;;;;;;22.70;99.90;22.80;99650.00;;;;341982;28;83388;-92
2023/07/13 01:04:31;;;;;;;;;;;22.70;99.90;22.70;99643.00;;;;339595;28;97355;-91
2023/07/13 01:04:43;;;;;;;;;;;22.70;99.90;22.70;99644.00;;;;338087;28;82523;-91
2023/07/13 01:04:56;;;;;;;;;;;22.70;99.90;22.70;99646.00;;;;337336;28;96312;-91
2023/07/13 01:05:11;;;;;;;;;;;22.70;99.90;22.60;99645.00;;;;340660;28;82560;-91
2023/07/13 01:05:23;;;;;;;;;;;22.70;99.90;22.60;99646.00;;;;338590;28;96700;-92
2023/07/13 01:05:36;;;;;;;;;;;22.70;99.90;22.60;99645.00;;;;337954;28;82523;-91
2023/07/13 01:05:48;;;;;;;;;;;22.70;99.90;22.70;99644.00;;;;338656;28;96170;-91
2023/07/13 01:06:00;;;;;;;;;;;22.70;99.90;22.70;99647.00;;;;338019;28;82495;-91
2023/07/13 01:06:13;;;;;;;;;;;22.70;99.90;22.60;99650.00;;;;338552;28;96083;-90
2023/07/13 01:06:25;;;;;;;;;;;22.70;99.90;22.70;99652.00;;;;342006;28;83522;-91
2023/07/13 01:06:37;;;;;;;;;;;22.70;99.90;22.70;99642.00;;;;338384;28;96561;-91